AirNav   Air Wisconsin Up To $57,000 Bonus
 
 1033 users online  

4M1 Carroll County Airport
Berryville, Arkansas, USA

GOING TO BERRYVILLE?


FAA INFORMATION EFFECTIVE 25 FEBRUARY 2021

Location

FAA Identifier: 4M1
Lat/Long: 36-22-52.8000N 093-37-28.4000W
36-22.880000N 093-37.473333W
36.3813333,-93.6245556
(estimated)
Elevation: 1205.5 ft. / 367.4 m (surveyed)
Variation: 02E (2010)
From city: 3 miles W of BERRYVILLE, AR
Time zone: UTC -6 (UTC -5 during Daylight Saving Time)
Zip code: 72616

Airport Operations

Airport use: Open to the public
Activation date: 05/1966
Control tower: no
ARTCC: MEMPHIS CENTER
FSS: JONESBORO FLIGHT SERVICE STATION
NOTAMs facility: JBR (NOTAM-D service available)
Attendance: WED - SUN 0800-1700
Wind indicator: lighted
Segmented circle: yes
Lights: ACTVT REIL RWY 07 & 25; PAPI RWY 07 & 25, MIRL RWY 07/25; TWY LGTS - CTAF.
Beacon: white-green (lighted land airport)
Operates sunset to sunrise.

Airport Communications

CTAF: 122.9
RAZORBACK APPROACH: 126.6
RAZORBACK DEPARTURE: 126.6
  • APCH/DEP SVC PRVDD BY MEMPHIS ARTCC ON FREQS 126.1/269.0 (FAYETTEVILLE RCAG) WHEN RAZORBACK APCH CTL CLSD.

Nearby radio navigation aids

VOR radial/distance  VOR name  Freq  Var
HROr277/20.2HARRISON VOR/DME112.5004E
RZCr067/25.3RAZORBACK VORTAC116.4004E

Airport Services

Fuel available: 100LL
FUEL AVBL 24 HR SELF SERVE WITH CREDIT CARD.
Parking: hangars and tiedowns
Airframe service: MAJOR
Powerplant service: MAJOR
Bottled oxygen: NONE
Bulk oxygen: NONE

Runway Information

Runway 7/25

Dimensions: 3554 x 75 ft. / 1083 x 23 m
Surface: asphalt, in good condition
Weight bearing capacity: 
Single wheel: 12.0
Runway edge lights: medium intensity
RUNWAY 7  RUNWAY 25
Latitude: 36-22.797025N36-22.964125N
Longitude: 093-37.819565W093-37.125405W
Elevation: 1166.6 ft.1204.9 ft.
Traffic pattern: leftleft
Runway heading: 071 magnetic, 073 true251 magnetic, 253 true
Markings: nonprecision, in good conditionnonprecision, in good condition
Visual slope indicator: 2-light PAPI on left (3.00 degrees glide path)2-light PAPI on left (3.00 degrees glide path)
Runway end identifier lights: yesyes
Touchdown point: yes, no lightsyes, no lights
Obstructions: 11 ft. trees, 300 ft. from runway, 215 ft. left of centerline, 9:1 slope to clear23 ft. trees, 600 ft. from runway, 135 ft. left of centerline, 17:1 slope to clear

Airport Ownership and Management from official FAA records

Ownership: Publicly-owned
Owner: CARROLL COUNTY
210 WEST CHURCH ST.
BERRYVILLE, AR 72616
Phone 870-423-2967
Manager: MICHAEL PFEIFER
518 COUNTY ROAD 308
BERRYVILLE, AR 72616
Phone 870-423-8393

Airport Operational Statistics

Aircraft based on the field: 34
Single engine airplanes: 32
Multi engine airplanes: 2
    
Aircraft operations: avg 98/week *
59% transient general aviation
39% local general aviation
2% military
* for 12-month period ending 30 June 2020

Additional Remarks

NO LINE OF SIGHT BTN RY ENDS.
ULTRALIGHT ACTIVITY ON & INVOF ARPT.
DEER ON & INVOF ARPT.
FOR CD CTC RAZORBACK APCH 479-649-2416, WHEN APCH CLSD CTC MEMPHIS ARTCC AT 901-368-8453.

Instrument Procedures

NOTE: All procedures below are presented as PDF files. If you need a reader for these files, you should download the free Adobe Reader.

NOT FOR NAVIGATION. Please procure official charts for flight.
FAA instrument procedures published for use from 25 February 2021 at 0901Z to 25 March 2021 at 0900Z.

 
IAPs - Instrument Approach Procedures
RNAV (GPS) RWY 07   download (253KB)
RNAV (GPS) RWY 25   download (293KB)
NOTE: Special Take-Off Minimums/Departure Procedures apply   download (131KB)

Other nearby airports with instrument procedures:

H34 - Huntsville Municipal Airport (19 nm S)
KFWB - Branson West Municipal Airport - Emerson Field (22 nm NE)
KBBG - Branson Airport (22 nm NE)
94K - Cassville Municipal Airport (23 nm NW)
KROG - Rogers Executive Airport - Carter Field (23 nm W)
 
Loc | Ops | Rwys | IFR | FBO | Links
Com | Nav | Svcs | Stats | Notes

Branson Jet Center
AirBoss

 
Area around 4M1 (Carroll County Airport)
 
Road maps at: MapQuest Bing Google
 
Aerial photo
WARNING: Photo may not be current or correct
Aerial photo of 4M1 (Carroll County Airport)
Photo courtesy of the Arkansas Department of Aeronautics
Taken in the Spring of 2007

Do you have a better or more recent aerial photo of Carroll County Airport that you would like to share? If so, please send us your photo.

 
Sectional chart

 
Airport distance calculator
Flying to Carroll County Airport? Find the distance to fly.

From to 4M1

Sunrise and sunset
Times for 25-Feb-2021
 Local
(UTC-6)
 Zulu
(UTC)
Morning civil twilight06:2512:25
Sunrise06:5112:51
Sunset18:0400:04
Evening civil twilight18:3000:30

Current date and time
Zulu (UTC)  26-Feb-2021 01:48:00
Local (UTC-6)  25-Feb-2021 19:48:00
 
METAR
KFWB 
22nm NE 
260135Z AUTO 07007KT 10SM BKN060 OVC110 08/M07 A3021 RMK AO2
KROG 
22nm W 
260058Z 04007KT 10SM FEW049 OVC060 08/M03 A3019 RMK AO2 SLP227 T00781033
KBBG 
22nm NE 
260052Z 00000KT 10SM BKN060 08/M03 A3021
KHRO 
24nm E 
260053Z AUTO 09004KT 10SM BKN060 08/M04 A3020 RMK AO2 SLP232 T00831039
KASG 
27nm SW 
260048Z 07008KT 10SM OVC047 09/M03 A3019
KVBT 
29nm W 
260056Z AUTO 05006KT 10SM SCT055 BKN065 08/M04 A3020 RMK AO2 SLPNO T00831039 TSNO
KXNA 
33nm W 
260053Z 06006KT 10SM BKN050 OVC065 09/M04 A3018 RMK AO2 SLP225 T00891044
KFYV 
34nm SW 
260053Z 04008KT 10SM OVC045 09/M03 A3017 RMK AO2 SLP221 T00941028
KHFJ 
37nm NW 
260135Z AUTO 04007KT 10SM SCT120 05/M04 A3020 RMK AO2
KSLG 
42nm W 
260056Z AUTO 07008KT 10SM OVC048 09/M03 A3018 RMK AO2 SLP225 T00891028 TSNO
TAF
KROG 
22nm W 
251720Z 2518/2618 09010KT P6SM BKN250 FM260000 06009G17KT P6SM FEW040 BKN080 FM260400 08007KT P6SM BKN040 PROB30 2606/2610 5SM -SHRA OVC025 FM261200 08008KT P6SM OVC015
KBBG 
22nm NE 
251720Z 2518/2618 07007KT P6SM SCT250 FM260500 10007KT P6SM BKN080 PROB30 2606/2612 4SM -RASN BR OVC025 FM261200 10007KT P6SM BKN040 FM261400 12007KT P6SM SCT030 FM261500 12009KT P6SM BKN029
KHRO 
24nm E 
251723Z 2518/2618 07009KT P6SM SCT150 FM252300 08007KT P6SM OVC100 FM260400 09007KT P6SM OVC060 TEMPO 2604/2608 P6SM -SHRA OVC050 FM261200 13008KT P6SM BKN015
NOTAMs
Click for the latest NOTAMs
NOTAMs are issued by the DoD/FAA and will open in a separate window not controlled by AirNav.

 

 
 

FBO, Fuel Providers, and Aircraft Ground Support

  
 Business Name 
 
 Contact 
 
 Services / Description 
 
Fuel Prices
 
Comments
  
Carroll County Airport 870-423-8393
870-423-2120
[web site]
[email]

Like us on facebook
Airport management, Aviation fuel, Aircraft parking (ramp or tiedown), Hangars, Hangar leasing / sales, Passenger terminal and lounge, Flight training, ...

More info about Carroll County Airport
Shell
100LL
SS $3.72 
 Updated 18-Feb-2021
 
   3 read write
SS=Self service
Update Fuel Prices
 

Would you like to see your business listed on this page?

 If your business provides an interesting product or service to pilots, flight crews, aircraft, or users of the Carroll County Airport, you should consider listing it here.  To start the listing process, click on the button below
 
Add a business
 

Other Pages about Carroll County Airport

co.carroll.ar.us
Carroll County Airport
 
Update a link
 
Copyright © AirNav, LLC. All rights reserved. Privacy Policy  Contact